Time;durP1;ratioP1;P1;durP2;ratioP2;P2;SDS_P1;SDS_P2;PMS_P1;PMS_P2;Temp;Humidity;BMP_temperature;BMP_pressure;BME280_temperature;BME280_humidity;BME280_pressure;Samples;Min_cycle;Max_cycle;Signal;HPM_P1;HPM_P2
2021/12/07 00:00:29;;;;;;;13.77;8.65;;;3.60;99.90;;;;;;5095023;28;20039;-52
2021/12/07 00:02:55;;;;;;;12.52;7.82;;;3.50;99.90;;;;;;5113661;28;20105;-48
2021/12/07 00:05:21;;;;;;;13.57;8.40;;;3.50;99.90;;;;;;5111141;28;20049;-47
2021/12/07 00:07:47;;;;;;;9.70;6.30;;;3.60;99.90;;;;;;5113560;28;20028;-48
2021/12/07 00:10:14;;;;;;;20.73;13.18;;;3.70;99.90;;;;;;5111319;28;20467;-49
2021/12/07 00:12:43;;;;;;;14.80;8.55;;;3.80;99.90;;;;;;5077095;28;20115;-46
2021/12/07 00:15:12;;;;;;;19.33;14.00;;;3.90;99.90;;;;;;5112883;28;20039;-47
2021/12/07 00:17:37;;;;;;;18.42;13.45;;;4.00;99.90;;;;;;5114267;28;20035;-48
2021/12/07 00:20:14;;;;;;;17.17;11.98;;;4.10;99.90;;;;;;5113401;28;20020;-46
2021/12/07 00:22:41;;;;;;;21.05;13.13;;;3.90;99.90;;;;;;5101491;28;20036;-47
2021/12/07 00:25:08;;;;;;;19.27;12.60;;;4.00;99.90;;;;;;5090643;28;20104;-48
2021/12/07 00:27:34;;;;;;;17.50;10.73;;;4.10;99.90;;;;;;5057151;28;20045;-48
2021/12/07 00:30:00;;;;;;;15.82;9.93;;;4.10;99.90;;;;;;5040238;28;20044;-46
2021/12/07 00:32:34;;;;;;;18.35;13.48;;;4.00;99.90;;;;;;5096600;28;20024;-46
2021/12/07 00:35:21;;;;;;;19.38;13.35;;;4.20;99.90;;;;;;5107794;28;20032;-48
2021/12/07 00:37:50;;;;;;;18.08;12.90;;;4.40;99.90;;;;;;5113157;28;20220;-45
2021/12/07 00:40:18;;;;;;;21.40;14.85;;;4.50;99.90;;;;;;5091242;28;20032;-47
2021/12/07 00:42:45;;;;;;;20.40;14.18;;;4.60;99.90;;;;;;5090811;28;20036;-47
2021/12/07 00:45:13;;;;;;;21.05;15.07;;;4.70;99.90;;;;;;5091030;28;20043;-49
2021/12/07 00:47:39;;;;;;;19.67;13.48;;;4.90;99.90;;;;;;5070754;28;20048;-48
2021/12/07 00:50:07;;;;;;;21.73;15.30;;;4.90;99.90;;;;;;5057850;28;20048;-47
2021/12/07 00:52:32;;;;;;;20.38;14.43;;;4.90;99.90;;;;;;5009113;28;20516;-46
2021/12/07 00:54:59;;;;;;;15.73;10.13;;;4.80;99.90;;;;;;5054265;28;20033;-48
2021/12/07 00:57:25;;;;;;;21.92;12.60;;;4.60;99.90;;;;;;5054141;28;20136;-46
2021/12/07 00:59:51;;;;;;;20.27;13.90;;;4.60;99.90;;;;;;5054012;28;20036;-46
2021/12/07 01:02:18;;;;;;;20.85;13.20;;;4.60;99.90;;;;;;5053551;28;20474;-46
2021/12/07 01:04:52;;;;;;;15.80;8.38;;;4.50;99.90;;;;;;5053547;28;20029;-47
2021/12/07 01:26:33;;;;;;;21.05;14.52;;;4.00;99.90;;;;;;5054935;28;20091;-48
2021/12/07 01:28:59;;;;;;;23.25;14.57;;;3.90;99.90;;;;;;5055327;28;20064;-47
2021/12/07 01:31:35;;;;;;;19.55;13.23;;;3.80;99.90;;;;;;5055121;28;20487;-53
2021/12/07 01:36:44;;;;;;;22.40;13.90;;;3.80;99.90;;;;;;5038933;28;20194;-57
2021/12/07 01:59:59;;;;;;;32.72;23.10;;;4.10;99.90;;;;;;5053664;28;20036;-46
2021/12/07 02:02:28;;;;;;;35.38;23.92;;;4.10;99.90;;;;;;5079152;28;20043;-52
2021/12/07 02:04:56;;;;;;;30.33;22.08;;;4.10;99.90;;;;;;5096110;28;20048;-47
2021/12/07 02:07:23;;;;;;;42.67;30.20;;;4.10;99.90;;;;;;5093415;28;20056;-48
2021/12/07 02:09:54;;;;;;;47.40;33.13;;;4.00;99.90;;;;;;5096023;28;20055;-47
2021/12/07 02:12:21;;;;;;;52.00;36.72;;;4.00;99.90;;;;;;5095817;28;20036;-47
2021/12/07 02:14:47;;;;;;;49.90;33.63;;;3.90;99.90;;;;;;5104092;28;20036;-48
2021/12/07 02:17:16;;;;;;;36.22;23.83;;;3.90;99.90;;;;;;5114903;28;20109;-49
2021/12/07 02:19:42;;;;;;;31.17;20.10;;;3.90;99.90;;;;;;5112784;28;20042;-49
2021/12/07 02:22:10;;;;;;;37.92;24.58;;;3.80;99.90;;;;;;5115651;28;20112;-48
2021/12/07 02:24:36;;;;;;;43.53;30.20;;;3.80;99.90;;;;;;5115403;28;20039;-47
2021/12/07 02:27:03;;;;;;;42.58;28.45;;;3.80;99.90;;;;;;5115287;28;20028;-47
2021/12/07 02:29:29;;;;;;;38.25;27.00;;;3.60;99.90;;;;;;5115301;28;20483;-46
2021/12/07 02:31:56;;;;;;;30.52;22.30;;;3.60;99.90;;;;;;5079195;28;20035;-48
2021/12/07 02:34:23;;;;;;;31.25;22.58;;;3.60;99.90;;;;;;5115007;28;20038;-47
2021/12/07 02:36:50;;;;;;;29.15;20.98;;;3.60;99.90;;;;;;5116137;28;20387;-50
2021/12/07 02:39:17;;;;;;;25.40;16.42;;;3.60;99.90;;;;;;5117868;28;20051;-49
2021/12/07 02:41:43;;;;;;;24.25;15.38;;;3.60;99.90;;;;;;5115664;28;20023;-47
2021/12/07 02:44:09;;;;;;;22.75;14.25;;;3.50;99.90;;;;;;5115377;28;20023;-46
2021/12/07 02:46:37;;;;;;;20.42;12.63;;;3.30;99.90;;;;;;5115115;28;20051;-49
2021/12/07 02:49:07;;;;;;;25.50;16.10;;;3.40;99.90;;;;;;5114684;28;20118;-47
2021/12/07 02:51:34;;;;;;;21.65;14.90;;;3.50;99.90;;;;;;5114862;28;20055;-47
2021/12/07 02:54:00;;;;;;;24.50;14.98;;;3.50;99.90;;;;;;5115129;28;20023;-46
2021/12/07 02:56:26;;;;;;;25.92;15.40;;;3.40;99.90;;;;;;5095669;28;20040;-48
2021/12/07 02:58:58;;;;;;;26.77;16.13;;;3.50;99.90;;;;;;5111221;28;20060;-48
2021/12/07 03:01:30;;;;;;;26.40;15.63;;;3.40;99.90;;;;;;5094310;28;20046;-48
2021/12/07 03:04:03;;;;;;;25.17;15.15;;;3.40;99.90;;;;;;5094297;28;20035;-47
2021/12/07 03:07:12;;;;;;;25.13;14.48;;;3.40;99.90;;;;;;5094248;28;20390;-48
2021/12/07 03:28:23;;;;;;;24.50;14.70;;;3.30;99.90;;;;;;5081054;28;20028;-48
2021/12/07 03:30:49;;;;;;;22.65;13.98;;;3.30;99.90;;;;;;5072509;28;20028;-56
2021/12/07 03:33:14;;;;;;;21.05;14.00;;;3.30;99.90;;;;;;5022065;28;20081;-46
2021/12/07 03:35:40;;;;;;;22.70;14.00;;;3.20;99.90;;;;;;5071057;28;20436;-47
2021/12/07 03:38:08;;;;;;;20.45;13.20;;;3.20;99.90;;;;;;5071408;28;20040;-46
2021/12/07 03:40:34;;;;;;;23.25;14.05;;;3.10;99.90;;;;;;5071279;28;20024;-46
2021/12/07 03:43:00;;;;;;;18.75;10.77;;;3.00;99.90;;;;;;5073302;28;20032;-53
2021/12/07 03:45:26;;;;;;;19.60;11.52;;;3.00;99.90;;;;;;5071772;28;20361;-48
2021/12/07 03:47:53;;;;;;;20.17;13.18;;;3.00;99.90;;;;;;5074000;28;20133;-47
2021/12/07 03:50:21;;;;;;;16.48;9.50;;;3.00;99.90;;;;;;5092290;28;20032;-46
2021/12/07 03:52:48;;;;;;;24.10;14.77;;;2.90;99.90;;;;;;5093281;28;20411;-48
2021/12/07 03:55:14;;;;;;;25.92;14.23;;;3.10;99.90;;;;;;5095659;28;20500;-48
2021/12/07 03:57:40;;;;;;;24.88;14.85;;;3.00;99.90;;;;;;5114328;28;20101;-48
2021/12/07 04:00:10;;;;;;;26.98;15.02;;;3.00;99.90;;;;;;5114429;28;20026;-46
2021/12/07 04:02:40;;;;;;;23.63;14.88;;;3.10;99.90;;;;;;5095146;28;20513;-47
2021/12/07 04:05:14;;;;;;;26.02;16.13;;;3.10;99.90;;;;;;5095261;28;20035;-46
2021/12/07 04:07:40;;;;;;;8.98;5.80;;;3.00;99.90;;;;;;5114263;28;20031;-48
2021/12/07 04:10:09;;;;;;;15.32;8.95;;;2.80;99.90;;;;;;5113966;28;20027;-48
2021/12/07 04:12:35;;;;;;;15.02;9.20;;;2.70;99.90;;;;;;5094883;28;20074;-48
2021/12/07 04:15:03;;;;;;;22.13;14.57;;;2.80;99.90;;;;;;5113792;28;20023;-48
2021/12/07 04:17:29;;;;;;;19.48;12.07;;;2.90;99.90;;;;;;5113907;28;20035;-46
2021/12/07 04:19:54;;;;;;;23.20;14.60;;;2.90;99.90;;;;;;5094240;28;20039;-49
2021/12/07 04:22:20;;;;;;;23.33;13.65;;;2.90;99.90;;;;;;5112718;28;20024;-48
2021/12/07 04:24:46;;;;;;;15.23;8.60;;;2.90;99.90;;;;;;5111065;28;20074;-48
2021/12/07 04:27:12;;;;;;;19.38;12.82;;;2.70;99.90;;;;;;5113235;28;20383;-46
2021/12/07 04:29:37;;;;;;;22.40;14.57;;;2.70;99.90;;;;;;5111141;28;20108;-48
2021/12/07 04:32:04;;;;;;;23.35;13.68;;;2.80;99.90;;;;;;5113731;28;20396;-47
2021/12/07 04:34:29;;;;;;;21.90;13.95;;;2.80;99.90;;;;;;5113143;28;20382;-47
2021/12/07 04:36:55;;;;;;;27.63;14.98;;;2.90;99.90;;;;;;5113072;28;20031;-46
2021/12/07 04:39:21;;;;;;;27.42;16.65;;;3.00;99.90;;;;;;5110815;28;20043;-48
2021/12/07 04:41:49;;;;;;;23.75;15.43;;;3.00;99.90;;;;;;5110865;28;20043;-46
2021/12/07 04:44:14;;;;;;;19.58;12.27;;;3.00;99.90;;;;;;5112831;28;20031;-46
2021/12/07 04:46:49;;;;;;;25.35;15.18;;;2.80;99.90;;;;;;5110657;28;20092;-48
2021/12/07 05:00:27;;;;;;;20.50;13.45;;;3.10;99.90;;;;;;5069979;28;20029;-48
2021/12/07 05:02:57;;;;;;;25.65;13.90;;;3.00;99.90;;;;;;5036179;28;20037;-48
2021/12/07 05:05:30;;;;;;;21.35;13.93;;;3.00;99.90;;;;;;5070002;28;20045;-48
2021/12/07 05:07:59;;;;;;;21.25;13.00;;;3.00;99.90;;;;;;5068840;28;20108;-47
2021/12/07 05:13:10;;;;;;;25.02;15.15;;;3.00;99.90;;;;;;5069638;28;20028;-46
2021/12/07 05:34:47;;;;;;;20.55;13.15;;;2.90;99.90;;;;;;5114643;28;20047;-47
2021/12/07 05:40:00;;;;;;;26.38;16.38;;;3.00;99.90;;;;;;5116602;28;20147;-48
2021/12/07 05:42:26;;;;;;;24.95;14.98;;;2.90;99.90;;;;;;5116529;28;20100;-49
2021/12/07 05:44:54;;;;;;;22.65;14.05;;;2.90;99.90;;;;;;5114216;28;20081;-47
2021/12/07 05:47:20;;;;;;;16.20;11.18;;;2.90;99.90;;;;;;5115964;28;20084;-49
2021/12/07 05:49:46;;;;;;;22.77;14.45;;;2.80;99.90;;;;;;5115992;28;20705;-47
2021/12/07 05:52:12;;;;;;;28.50;15.20;;;2.90;99.90;;;;;;5113900;28;20027;-47
2021/12/07 05:54:38;;;;;;;25.77;13.73;;;2.90;99.90;;;;;;5113543;28;20539;-47
2021/12/07 05:57:04;;;;;;;24.55;16.13;;;2.90;99.90;;;;;;5113637;28;20039;-47
2021/12/07 05:59:31;;;;;;;25.85;16.10;;;2.90;99.90;;;;;;5079009;28;20172;-48
2021/12/07 06:01:57;;;;;;;23.08;14.35;;;2.90;99.90;;;;;;5099974;28;20032;-47
2021/12/07 06:04:22;;;;;;;24.58;15.07;;;3.00;99.90;;;;;;5092914;28;20381;-48
2021/12/07 06:06:48;;;;;;;26.10;15.48;;;3.00;99.90;;;;;;5088504;28;20032;-49
2021/12/07 06:09:14;;;;;;;20.88;13.32;;;2.90;99.90;;;;;;5084292;28;20079;-48
2021/12/07 06:11:42;;;;;;;27.27;17.48;;;2.90;99.90;;;;;;5036468;28;20036;-48
2021/12/07 06:14:11;;;;;;;16.95;10.05;;;2.90;99.90;;;;;;5095525;28;20047;-46
2021/12/07 06:16:37;;;;;;;19.13;12.63;;;2.80;99.90;;;;;;5096718;28;20052;-45
2021/12/07 06:19:03;;;;;;;28.10;17.13;;;2.70;99.90;;;;;;5076922;28;20143;-49
2021/12/07 06:21:29;;;;;;;27.73;17.25;;;2.70;99.90;;;;;;5040188;28;20508;-48
2021/12/07 06:23:56;;;;;;;26.08;17.55;;;2.70;99.90;;;;;;5068688;28;20391;-47
2021/12/07 06:26:21;;;;;;;28.90;17.98;;;2.80;99.90;;;;;;5107490;28;20078;-47
2021/12/07 06:28:47;;;;;;;26.08;17.10;;;2.90;99.90;;;;;;5113767;28;20077;-48
2021/12/07 06:31:13;;;;;;;19.20;10.80;;;2.90;99.90;;;;;;5089883;28;20118;-49
2021/12/07 06:33:39;;;;;;;33.60;22.45;;;2.70;99.90;;;;;;5101980;27;20449;-48
2021/12/07 06:36:06;;;;;;;29.52;17.77;;;2.80;99.90;;;;;;5104753;27;20256;-49
2021/12/07 06:38:33;;;;;;;27.40;17.30;;;2.70;99.90;;;;;;5114988;28;20020;-47
2021/12/07 06:41:00;;;;;;;25.45;15.77;;;2.60;99.90;;;;;;5115307;28;20027;-50
2021/12/07 06:43:26;;;;;;;28.05;17.08;;;2.70;99.90;;;;;;5109942;27;20029;-48
2021/12/07 06:45:53;;;;;;;16.83;10.57;;;2.70;99.90;;;;;;5101120;28;20028;-48
2021/12/07 06:48:19;;;;;;;28.48;16.17;;;2.60;99.90;;;;;;5106346;28;20024;-49
2021/12/07 06:50:45;;;;;;;26.75;16.85;;;2.60;99.90;;;;;;5112352;28;20355;-48
2021/12/07 06:53:11;;;;;;;17.63;11.63;;;2.60;99.90;;;;;;5112923;28;20027;-49
2021/12/07 06:55:37;;;;;;;24.38;15.45;;;2.50;99.90;;;;;;5112289;27;20031;-47
2021/12/07 06:58:04;;;;;;;24.92;14.93;;;2.50;99.90;;;;;;5061802;28;20035;-49
2021/12/07 07:00:31;;;;;;;25.40;15.07;;;2.50;99.90;;;;;;5114916;28;20027;-48
2021/12/07 07:02:57;;;;;;;19.90;13.27;;;2.50;99.90;;;;;;5115069;28;20028;-48
2021/12/07 07:05:23;;;;;;;25.63;16.20;;;2.50;99.90;;;;;;5115118;28;20362;-48
2021/12/07 07:07:49;;;;;;;27.83;16.13;;;2.60;99.90;;;;;;5114676;28;20447;-49
2021/12/07 07:10:17;;;;;;;25.90;16.02;;;2.70;99.90;;;;;;5098207;28;20130;-49
2021/12/07 07:12:44;;;;;;;21.42;13.88;;;2.70;99.90;;;;;;5111337;28;20453;-50
2021/12/07 07:15:10;;;;;;;26.92;15.98;;;2.60;99.90;;;;;;5113500;28;20046;-49
2021/12/07 07:17:36;;;;;;;21.27;14.00;;;2.70;99.90;;;;;;5113821;28;20051;-47
2021/12/07 07:20:04;;;;;;;26.33;16.67;;;2.60;99.90;;;;;;5111625;28;20080;-50
2021/12/07 07:22:30;;;;;;;22.63;14.77;;;2.80;99.90;;;;;;5060924;28;20028;-49
2021/12/07 07:24:56;;;;;;;26.85;16.88;;;2.70;99.90;;;;;;5094389;28;20055;-50
2021/12/07 07:27:22;;;;;;;35.88;22.63;;;2.80;99.90;;;;;;5094308;28;20123;-48
2021/12/07 07:29:48;;;;;;;37.63;21.25;;;2.70;99.90;;;;;;5111240;28;20077;-49
2021/12/07 07:32:14;;;;;;;46.33;30.70;;;2.70;99.90;;;;;;5113674;28;20028;-49
2021/12/07 07:34:40;;;;;;;17.35;11.05;;;2.70;99.90;;;;;;5109661;28;20057;-49
2021/12/07 07:37:05;;;;;;;29.95;20.13;;;2.60;99.90;;;;;;5094153;28;20027;-48
2021/12/07 07:39:32;;;;;;;34.13;23.15;;;2.60;99.90;;;;;;5113303;28;20043;-48
2021/12/07 07:41:58;;;;;;;29.13;19.73;;;2.70;99.90;;;;;;5094087;28;20100;-48
2021/12/07 07:44:24;;;;;;;28.30;17.88;;;2.60;99.90;;;;;;5113208;28;20064;-49
2021/12/07 07:46:50;;;;;;;17.25;8.50;;;2.60;99.90;;;;;;5112986;28;20019;-48
2021/12/07 07:49:16;;;;;;;21.80;13.30;;;2.50;99.90;;;;;;5043648;28;20031;-50
2021/12/07 07:51:42;;;;;;;26.70;17.38;;;2.40;99.90;;;;;;5113008;28;20036;-49
2021/12/07 07:54:08;;;;;;;24.27;13.02;;;2.40;99.90;;;;;;5113165;28;20023;-49
2021/12/07 07:56:36;;;;;;;30.88;20.13;;;2.30;99.90;;;;;;5112790;28;20116;-49
2021/12/07 07:59:03;;;;;;;34.08;22.33;;;2.50;99.90;;;;;;5094445;28;20035;-49
2021/12/07 08:01:30;;;;;;;24.13;15.43;;;2.60;99.90;;;;;;5114056;28;20023;-50
2021/12/07 08:04:00;;;;;;;37.30;23.20;;;2.50;99.90;;;;;;5113389;28;20050;-49
2021/12/07 08:06:26;;;;;;;28.50;18.58;;;2.60;99.90;;;;;;5111453;28;20024;-50
2021/12/07 08:08:52;;;;;;;17.17;11.15;;;2.60;99.90;;;;;;5108754;28;20053;-50
2021/12/07 08:11:18;;;;;;;34.72;23.35;;;2.50;99.90;;;;;;5107374;28;20410;-48
2021/12/07 08:13:44;;;;;;;36.85;24.50;;;2.70;99.90;;;;;;5077220;28;20081;-49
2021/12/07 08:16:15;;;;;;;30.42;19.77;;;2.80;99.90;;;;;;5077173;28;20058;-50
2021/12/07 08:18:49;;;;;;;35.33;22.45;;;2.80;99.90;;;;;;5110580;28;20122;-49
2021/12/07 08:21:16;;;;;;;40.03;25.33;;;2.80;99.90;;;;;;5108839;28;20028;-48
2021/12/07 08:23:43;;;;;;;37.67;24.42;;;2.90;99.90;;;;;;5112595;28;20038;-49
2021/12/07 08:26:11;;;;;;;42.30;25.40;;;3.00;99.90;;;;;;5071949;28;20097;-49
2021/12/07 08:28:37;;;;;;;34.53;22.17;;;3.00;99.90;;;;;;5111964;28;20034;-49
2021/12/07 08:31:03;;;;;;;35.22;21.98;;;3.10;99.90;;;;;;5113056;28;20031;-49
2021/12/07 08:33:31;;;;;;;26.15;14.98;;;3.10;99.90;;;;;;5113445;28;20032;-48
2021/12/07 08:35:57;;;;;;;29.25;17.33;;;2.90;99.90;;;;;;5113209;28;20424;-50
2021/12/07 08:38:23;;;;;;;29.58;19.00;;;2.90;99.90;;;;;;5113079;28;20521;-49
2021/12/07 08:40:53;;;;;;;38.78;23.17;;;2.90;99.90;;;;;;5113230;28;20161;-48
2021/12/07 08:43:25;;;;;;;30.08;19.08;;;2.90;99.90;;;;;;5113600;28;20040;-49
2021/12/07 08:45:53;;;;;;;30.48;20.38;;;2.90;99.90;;;;;;5111266;28;20071;-49
2021/12/07 08:48:19;;;;;;;27.80;17.67;;;2.90;99.90;;;;;;5110480;28;20020;-49
2021/12/07 08:50:46;;;;;;;30.73;20.67;;;2.90;99.90;;;;;;5110240;28;20120;-47
2021/12/07 08:53:16;;;;;;;31.05;20.05;;;3.10;99.90;;;;;;5091894;28;20062;-48
2021/12/07 09:01:17;;;;;;;33.38;21.48;;;2.80;99.90;;;;;;5112112;28;20126;-49
2021/12/07 09:03:44;;;;;;;31.85;21.50;;;2.70;99.90;;;;;;5075395;28;20122;-49
2021/12/07 09:06:10;;;;;;;36.33;21.85;;;2.90;99.90;;;;;;5110103;28;20027;-49
2021/12/07 09:08:36;;;;;;;29.35;20.95;;;2.90;99.90;;;;;;5113634;28;20046;-48
2021/12/07 09:11:04;;;;;;;30.90;19.58;;;2.80;99.90;;;;;;5116733;28;20092;-48
2021/12/07 09:13:29;;;;;;;28.48;18.55;;;2.90;99.90;;;;;;5117152;28;20032;-48
2021/12/07 09:15:57;;;;;;;27.42;17.42;;;3.00;99.90;;;;;;5106475;28;20408;-49
2021/12/07 09:18:23;;;;;;;28.23;18.13;;;2.90;99.90;;;;;;5110908;28;20441;-52
2021/12/07 09:20:49;;;;;;;14.50;8.80;;;3.00;99.90;;;;;;5108456;28;20386;-48
2021/12/07 09:23:15;;;;;;;33.50;20.75;;;2.70;99.90;;;;;;5102793;28;20042;-48
2021/12/07 09:25:41;;;;;;;31.13;19.35;;;2.90;99.90;;;;;;5115578;27;20039;-48
2021/12/07 09:28:09;;;;;;;25.73;17.10;;;3.00;99.90;;;;;;5114151;28;20044;-48
2021/12/07 09:30:35;;;;;;;29.10;17.60;;;2.90;99.90;;;;;;5116626;28;20455;-48
2021/12/07 09:36:25;;;;;;;39.28;24.33;;;2.80;99.90;;;;;;5112232;28;20070;-48
2021/12/07 09:38:51;;;;;;;45.97;26.33;;;3.00;99.90;;;;;;5105356;28;20031;-48
2021/12/07 09:41:18;;;;;;;35.53;21.30;;;2.90;99.90;;;;;;5116158;28;20043;-48
2021/12/07 09:47:06;;;;;;;26.87;18.23;;;2.90;99.90;;;;;;5113676;27;20738;-48
2021/12/07 09:49:32;;;;;;;26.85;18.90;;;2.90;99.90;;;;;;5067550;28;20044;-49
2021/12/07 09:51:58;;;;;;;32.25;20.85;;;2.90;99.90;;;;;;5100453;28;20080;-48
2021/12/07 09:54:24;;;;;;;37.40;22.83;;;3.00;99.90;;;;;;5113836;28;20031;-47
2021/12/07 09:56:49;;;;;;;33.80;21.10;;;3.00;99.90;;;;;;5097173;28;20062;-48
2021/12/07 09:59:15;;;;;;;27.60;16.60;;;3.10;99.90;;;;;;5116306;28;20099;-47
2021/12/07 10:01:42;;;;;;;19.40;12.60;;;3.00;99.90;;;;;;5063335;28;20027;-48
2021/12/07 10:04:08;;;;;;;31.88;20.98;;;3.00;99.90;;;;;;5113987;28;20469;-48
2021/12/07 10:06:34;;;;;;;32.92;21.85;;;2.90;99.90;;;;;;5115710;28;20111;-48
2021/12/07 10:09:01;;;;;;;23.60;14.85;;;3.00;99.90;;;;;;5116194;28;20031;-48
2021/12/07 10:11:27;;;;;;;31.15;20.40;;;2.80;99.90;;;;;;5116288;28;20091;-48
2021/12/07 10:13:53;;;;;;;34.85;22.15;;;2.90;99.90;;;;;;5114648;28;20505;-48
2021/12/07 10:16:22;;;;;;;24.00;16.65;;;3.00;99.90;;;;;;5101338;28;20055;-48
2021/12/07 10:18:48;;;;;;;33.53;20.85;;;3.00;99.90;;;;;;5097669;28;20081;-48
2021/12/07 10:21:20;;;;;;;32.95;18.65;;;2.90;99.90;;;;;;5107116;28;20027;-48
2021/12/07 10:23:50;;;;;;;39.50;24.25;;;2.90;99.90;;;;;;5116032;28;20042;-48
2021/12/07 10:26:23;;;;;;;37.00;23.75;;;2.90;99.90;;;;;;5116132;28;20024;-47
2021/12/07 10:28:56;;;;;;;37.47;22.73;;;3.00;99.90;;;;;;5115411;28;20035;-48
2021/12/07 10:31:33;;;;;;;36.78;23.42;;;3.00;99.90;;;;;;5115498;28;20471;-48
2021/12/07 10:34:08;;;;;;;35.38;22.33;;;3.00;99.90;;;;;;5114352;28;20244;-47
2021/12/07 10:36:42;;;;;;;35.58;22.67;;;3.10;99.90;;;;;;5118158;28;20055;-48
2021/12/07 10:39:20;;;;;;;34.80;23.92;;;3.10;99.90;;;;;;5115646;28;20027;-47
2021/12/07 10:41:53;;;;;;;36.05;25.33;;;3.30;99.90;;;;;;5113285;28;20760;-48
2021/12/07 10:44:24;;;;;;;48.13;32.85;;;3.20;99.90;;;;;;5115208;28;20106;-47
2021/12/07 10:46:56;;;;;;;33.40;22.35;;;3.20;99.90;;;;;;5115512;28;20604;-47
2021/12/07 10:49:29;;;;;;;37.15;24.48;;;3.20;99.90;;;;;;5092695;28;20056;-58
2021/12/07 10:52:27;;;;;;;28.92;19.35;;;3.30;99.90;;;;;;5094671;28;20034;-48
2021/12/07 10:55:12;;;;;;;40.42;25.23;;;3.20;99.90;;;;;;5094622;28;20067;-48
2021/12/07 10:58:00;;;;;;;37.38;23.52;;;3.40;99.90;;;;;;5094749;28;20044;-48
2021/12/07 11:00:34;;;;;;;39.63;26.48;;;3.40;99.90;;;;;;5094759;28;20099;-48
2021/12/07 11:03:03;;;;;;;36.45;23.38;;;3.40;99.90;;;;;;5109315;28;20165;-48
2021/12/07 11:05:35;;;;;;;39.60;25.45;;;3.50;99.90;;;;;;5094310;28;20025;-48
2021/12/07 11:08:03;;;;;;;28.70;17.50;;;3.50;99.90;;;;;;5094605;28;20064;-48
2021/12/07 11:10:32;;;;;;;40.75;24.90;;;3.60;99.90;;;;;;5094394;28;20040;-55
2021/12/07 11:15:34;;;;;;;43.63;27.10;;;3.70;99.90;;;;;;5094064;28;20436;-47
2021/12/07 11:18:06;;;;;;;32.17;21.38;;;3.80;99.90;;;;;;5091696;28;20463;-48
2021/12/07 11:20:35;;;;;;;31.73;21.15;;;3.80;99.90;;;;;;5093753;28;20027;-48
2021/12/07 11:23:28;;;;;;;25.60;15.70;;;3.90;99.90;;;;;;5107742;27;20024;-49
2021/12/07 11:31:27;;;;;;;28.33;18.80;;;3.80;99.90;;;;;;5093256;28;20066;-48
2021/12/07 11:34:07;;;;;;;23.98;15.00;;;3.80;99.90;;;;;;5093712;28;20028;-48
2021/12/07 11:36:41;;;;;;;34.40;20.67;;;3.90;99.90;;;;;;5091445;28;20044;-49
2021/12/07 11:39:27;;;;;;;21.63;14.63;;;3.80;99.90;;;;;;5093784;28;20111;-49
2021/12/07 11:41:57;;;;;;;31.98;21.27;;;3.80;99.90;;;;;;5093561;28;20518;-48
2021/12/07 11:44:23;;;;;;;44.15;26.00;;;3.90;99.90;;;;;;5094035;28;20028;-49
2021/12/07 11:46:51;;;;;;;23.73;15.25;;;3.80;99.90;;;;;;5111495;28;20043;-48
2021/12/07 11:49:20;;;;;;;22.15;15.00;;;3.90;99.90;;;;;;5108212;28;20391;-48
2021/12/07 11:51:52;;;;;;;25.27;16.63;;;3.90;99.90;;;;;;5111419;28;20502;-48
2021/12/07 11:54:21;;;;;;;20.45;13.48;;;4.10;99.90;;;;;;5109500;28;20577;-49
2021/12/07 11:56:47;;;;;;;22.63;14.32;;;4.10;99.90;;;;;;5067864;28;20044;-49
2021/12/07 11:59:15;;;;;;;21.83;14.27;;;4.00;99.90;;;;;;5070006;28;20035;-49
2021/12/07 12:01:42;;;;;;;22.85;14.88;;;4.00;99.90;;;;;;5069918;28;20032;-48
2021/12/07 12:04:08;;;;;;;21.77;15.18;;;4.10;99.90;;;;;;5053143;28;20036;-48
2021/12/07 12:06:35;;;;;;;23.83;15.23;;;4.10;99.90;;;;;;5019749;28;20577;-48
2021/12/07 12:09:03;;;;;;;23.58;16.02;;;4.10;99.90;;;;;;5067618;28;20050;-47
2021/12/07 12:11:47;;;;;;;24.38;15.95;;;4.30;99.90;;;;;;5070471;28;20032;-48
2021/12/07 12:14:49;;;;;;;26.45;16.92;;;4.40;99.90;;;;;;5070624;28;20127;-48
2021/12/07 12:17:48;;;;;;;30.30;18.63;;;4.40;99.90;;;;;;5070723;28;20053;-48
2021/12/07 12:20:42;;;;;;;26.27;16.63;;;4.40;99.90;;;;;;5070702;28;20056;-49
2021/12/07 12:23:20;;;;;;;26.73;18.42;;;4.40;99.90;;;;;;5053980;28;20036;-48
2021/12/07 12:25:58;;;;;;;25.20;16.10;;;4.50;99.90;;;;;;5021340;28;20049;-48
2021/12/07 12:28:35;;;;;;;26.33;16.73;;;4.60;99.90;;;;;;5066795;28;20036;-48
2021/12/07 12:31:02;;;;;;;28.10;17.63;;;4.40;99.90;;;;;;5077167;28;20032;-48
2021/12/07 12:33:51;;;;;;;26.52;18.63;;;4.60;99.90;;;;;;5113935;28;20077;-48
2021/12/07 12:36:22;;;;;;;31.17;18.45;;;4.50;99.90;;;;;;5077292;28;20031;-48
2021/12/07 12:39:06;;;;;;;25.77;17.27;;;4.50;99.90;;;;;;5113562;28;20108;-48
2021/12/07 12:41:33;;;;;;;63.00;38.30;;;4.60;99.90;;;;;;5113100;28;20089;-48
2021/12/07 12:44:08;;;;;;;24.75;17.70;;;4.70;99.90;;;;;;5112612;28;20019;-48
2021/12/07 12:46:37;;;;;;;25.50;20.45;;;4.60;99.90;;;;;;5067494;28;20109;-48
2021/12/07 12:49:11;;;;;;;26.08;17.88;;;4.80;99.90;;;;;;5070672;28;20048;-48
2021/12/07 12:51:50;;;;;;;28.67;19.23;;;4.70;99.90;;;;;;5068638;28;20075;-48
2021/12/07 12:54:18;;;;;;;23.10;16.42;;;4.70;99.90;;;;;;5053816;28;20058;-48
2021/12/07 12:56:45;;;;;;;17.55;10.68;;;4.70;99.90;;;;;;5070015;28;20553;-48
2021/12/07 12:59:12;;;;;;;30.50;18.77;;;4.60;99.90;;;;;;5070422;28;20041;-57
2021/12/07 13:01:45;;;;;;;11.45;7.93;;;4.60;99.90;;;;;;5070785;28;20032;-48
2021/12/07 13:04:34;;;;;;;28.40;19.45;;;4.50;99.90;;;;;;5069967;28;20032;-49
2021/12/07 13:09:40;;;;;;;23.35;15.35;;;4.50;99.90;;;;;;5049973;28;20127;-48
2021/12/07 13:12:18;;;;;;;24.20;14.50;;;4.50;99.90;;;;;;5089449;28;20070;-47
2021/12/07 13:14:55;;;;;;;23.70;15.63;;;4.50;99.90;;;;;;5092865;28;20041;-48
2021/12/07 13:17:34;;;;;;;22.08;14.27;;;4.50;99.90;;;;;;5073136;28;20067;-48
2021/12/07 13:20:17;;;;;;;14.68;8.90;;;4.50;99.90;;;;;;5092216;28;20487;-47
2021/12/07 13:22:49;;;;;;;18.58;12.23;;;4.20;99.90;;;;;;5092543;28;20028;-47
2021/12/07 13:25:18;;;;;;;19.50;13.82;;;4.20;99.90;;;;;;5092535;28;20044;-48
2021/12/07 13:28:15;;;;;;;20.75;13.23;;;4.20;99.90;;;;;;5092218;28;20032;-48
2021/12/07 13:30:58;;;;;;;20.60;13.32;;;4.30;99.90;;;;;;5092006;28;20056;-49
2021/12/07 13:33:39;;;;;;;20.33;12.90;;;4.20;99.90;;;;;;5098667;28;20483;-48
2021/12/07 13:36:36;;;;;;;17.30;10.32;;;4.30;99.90;;;;;;5112107;28;20034;-47
2021/12/07 13:39:14;;;;;;;14.88;9.27;;;4.10;99.90;;;;;;5108955;28;20057;-48
2021/12/07 13:42:00;;;;;;;21.55;14.02;;;4.20;99.90;;;;;;5109826;28;20047;-49
2021/12/07 13:44:32;;;;;;;21.73;14.15;;;4.20;99.90;;;;;;5107094;28;20047;-48
2021/12/07 13:47:07;;;;;;;18.60;11.77;;;4.20;99.90;;;;;;5093579;28;20032;-48
2021/12/07 13:49:35;;;;;;;19.38;13.15;;;4.10;99.90;;;;;;5079962;28;20056;-48
2021/12/07 13:52:01;;;;;;;24.85;15.55;;;4.10;99.90;;;;;;5104053;28;20066;-47
2021/12/07 13:54:27;;;;;;;17.13;11.15;;;4.20;99.90;;;;;;5111478;28;20036;-48
2021/12/07 13:56:54;;;;;;;37.63;19.27;;;4.30;99.90;;;;;;5114381;27;20034;-48
2021/12/07 13:59:23;;;;;;;46.30;20.35;;;4.30;99.90;;;;;;5094584;28;20040;-48
2021/12/07 14:01:55;;;;;;;26.13;16.77;;;4.20;99.90;;;;;;5096535;28;20032;-47
2021/12/07 14:04:28;;;;;;;27.90;17.80;;;4.20;99.90;;;;;;5094364;28;20055;-48
2021/12/07 14:06:55;;;;;;;45.08;23.30;;;4.10;99.90;;;;;;5094314;28;20038;-48
2021/12/07 14:09:21;;;;;;;41.88;24.27;;;4.10;99.90;;;;;;5091717;28;20101;-48
2021/12/07 14:11:58;;;;;;;144.85;64.88;;;4.10;99.90;;;;;;5094171;28;20028;-47
2021/12/07 14:14:25;;;;;;;70.80;34.45;;;4.10;99.90;;;;;;5094203;28;20042;-47
2021/12/07 14:16:55;;;;;;;87.75;40.13;;;4.10;99.90;;;;;;5090279;28;20121;-47
2021/12/07 14:19:21;;;;;;;34.25;21.35;;;4.20;99.90;;;;;;5091238;28;20172;-47
2021/12/07 14:21:47;;;;;;;36.67;18.05;;;4.20;99.90;;;;;;5091544;28;20486;-48
2021/12/07 14:24:18;;;;;;;93.80;45.15;;;4.10;99.90;;;;;;5057470;28;20515;-48
2021/12/07 14:26:45;;;;;;;61.83;29.10;;;4.20;99.90;;;;;;5043303;28;20127;-47
2021/12/07 14:29:19;;;;;;;22.65;14.95;;;4.20;99.90;;;;;;5091111;28;20597;-48
2021/12/07 14:31:58;;;;;;;20.75;14.05;;;4.10;99.90;;;;;;5057030;28;20036;-47
2021/12/07 14:34:30;;;;;;;19.48;11.15;;;4.20;99.90;;;;;;5091183;28;20123;-48
2021/12/07 14:37:05;;;;;;;16.77;11.25;;;4.10;99.90;;;;;;4992260;28;20044;-48
2021/12/07 14:39:37;;;;;;;21.08;13.77;;;4.10;99.90;;;;;;5091119;28;20074;-48
2021/12/07 14:42:09;;;;;;;20.02;13.32;;;4.10;99.90;;;;;;5090906;28;20055;-47
2021/12/07 14:44:38;;;;;;;14.07;9.32;;;4.10;99.90;;;;;;5038519;28;20569;-47
2021/12/07 14:47:07;;;;;;;20.00;12.85;;;4.10;99.90;;;;;;5094789;28;20131;-48
2021/12/07 14:49:36;;;;;;;17.92;9.40;;;4.20;99.90;;;;;;5113812;28;20394;-47